createdAt,value
2018-04-22T00:03:43.157Z,9.22
2018-04-22T00:09:43.992Z,9
2018-04-22T00:15:44.714Z,9.44
2018-04-22T00:19:45.429Z,7.84
2018-04-22T00:25:46.112Z,8.56
2018-04-22T00:29:46.833Z,7.93
2018-04-22T00:35:47.710Z,8.34
2018-04-22T00:41:48.397Z,7.79
2018-04-22T00:45:49.176Z,7.94
2018-04-22T00:51:50.013Z,7.97
2018-04-22T00:55:50.734Z,7.86
2018-04-22T00:57:51.612Z,8.25
2018-04-22T01:01:52.295Z,7.9
2018-04-22T01:07:53.057Z,8.28
2018-04-22T01:11:53.771Z,8.27
2018-04-22T01:17:54.459Z,9.91
2018-04-22T01:23:55.352Z,8.53
2018-04-22T01:27:56.159Z,10.09
2018-04-22T01:33:56.936Z,7.65
2018-04-22T01:37:57.749Z,7.76
2018-04-22T01:39:58.479Z,8.11
2018-04-22T01:43:59.228Z,8.2
2018-04-22T01:49:59.928Z,8.35
2018-04-22T01:54:00.707Z,8.49
2018-04-22T02:00:01.574Z,8.75
2018-04-22T02:04:02.301Z,10.14
2018-04-22T02:06:03.144Z,9.7
2018-04-22T02:10:04.021Z,8.02
2018-04-22T02:16:04.747Z,7.47
2018-04-22T02:20:05.522Z,8.57
2018-04-22T02:26:06.324Z,7.53
2018-04-22T02:32:07.269Z,7.77
2018-04-22T02:36:07.964Z,7.33
2018-04-22T02:42:08.876Z,9.22
2018-04-22T02:46:09.592Z,7.86
2018-04-22T02:48:10.237Z,8.57
2018-04-22T02:52:10.990Z,7.77
2018-04-22T02:58:11.729Z,8.45
2018-04-22T03:02:12.442Z,8.7
2018-04-22T03:08:13.206Z,7.9
2018-04-22T03:14:13.920Z,7.37
2018-04-22T03:18:14.716Z,7.47
2018-04-22T03:24:15.518Z,7.77
2018-04-22T03:28:16.308Z,8.18
2018-04-22T03:34:17.195Z,7.44
2018-04-22T03:40:17.928Z,7.93
2018-04-22T03:44:18.645Z,8.89
2018-04-22T03:50:19.398Z,8.96
2018-04-22T03:54:20.166Z,8.98
2018-04-22T03:56:20.949Z,8.92
2018-04-22T04:00:21.931Z,8.59
2018-04-22T04:06:22.705Z,10.43
2018-04-22T04:10:23.486Z,9.38
2018-04-22T04:16:24.259Z,8.16
2018-04-22T04:22:24.945Z,8.99
2018-04-22T04:26:25.753Z,10.19
2018-04-22T04:32:26.542Z,8.25
2018-04-22T04:36:27.293Z,8.9
2018-04-22T04:38:27.966Z,7.99
2018-04-22T04:42:28.693Z,8.16
2018-04-22T04:48:29.450Z,8.67
2018-04-22T04:52:30.244Z,8.43
2018-04-22T04:58:30.953Z,9.34
2018-04-22T05:02:31.694Z,8.42
2018-04-22T05:04:32.369Z,8.96
2018-04-22T05:08:33.036Z,8.95
2018-04-22T05:14:33.992Z,8.16
2018-04-22T05:18:34.740Z,7.88
2018-04-22T05:24:35.512Z,8.83
2018-04-22T05:30:36.312Z,8.89
2018-04-22T05:34:37.031Z,9.79
2018-04-22T05:40:37.754Z,8.89
2018-04-22T05:44:38.531Z,8.41
2018-04-22T05:46:39.270Z,9.82
2018-04-22T05:50:40.030Z,10.94
2018-04-22T05:56:40.866Z,8.65
2018-04-22T06:00:41.715Z,8.28
2018-04-22T06:06:42.536Z,10.88
2018-04-22T06:12:43.289Z,12.56
2018-04-22T06:16:44.080Z,9.96
2018-04-22T06:22:44.890Z,10.09
2018-04-22T06:26:45.698Z,10.8
2018-04-22T06:32:46.555Z,11.63
2018-04-22T06:38:47.254Z,11.49
2018-04-22T06:42:47.981Z,15.22
2018-04-22T06:48:48.816Z,11.54
2018-04-22T06:52:49.563Z,11.38
2018-04-22T06:54:50.448Z,12.33
2018-04-22T06:58:51.265Z,12.11
2018-04-22T07:04:51.898Z,12.78
2018-04-22T07:08:52.584Z,12.77
2018-04-22T07:14:53.540Z,12.42
2018-04-22T07:20:54.314Z,12.31
2018-04-22T07:24:55.134Z,12.29
2018-04-22T07:30:55.967Z,12.52
2018-04-22T07:34:56.596Z,12.87
2018-04-22T07:36:57.263Z,12.72
2018-04-22T07:40:57.986Z,13.03
2018-04-22T07:46:58.854Z,12.75
2018-04-22T07:50:59.955Z,13.13
2018-04-22T07:57:00.755Z,13.81
2018-04-22T08:01:01.539Z,12.14
2018-04-22T08:03:02.319Z,14.37
2018-04-22T08:07:03.112Z,14.67
2018-04-22T08:13:03.848Z,12.18
2018-04-22T08:17:04.694Z,12.91
2018-04-22T08:23:05.487Z,11.45
2018-04-22T08:29:06.462Z,12.22
2018-04-22T08:33:07.228Z,11.06
2018-04-22T08:39:08.114Z,10.68
2018-04-22T08:43:08.857Z,10.21
2018-04-22T08:45:10.288Z,11
2018-04-22T08:49:11.179Z,10.73
2018-04-22T08:55:11.975Z,10.25
2018-04-22T08:59:12.791Z,11.42
2018-04-22T09:05:13.515Z,10.29
2018-04-22T09:09:14.190Z,10.07
2018-04-22T09:11:14.854Z,10.43
2018-04-22T09:15:15.874Z,11.13
2018-04-22T09:21:16.721Z,9.71
2018-04-22T09:25:17.443Z,10.08
2018-04-22T09:31:18.329Z,8.88
2018-04-22T09:37:19.066Z,9.01
2018-04-22T09:41:19.833Z,8.23
2018-04-22T09:47:20.712Z,7.4
2018-04-22T09:51:21.562Z,6.8
2018-04-22T09:53:22.444Z,8.31
2018-04-22T09:57:23.154Z,8.95
2018-04-22T10:03:24.147Z,10.42
2018-04-22T10:07:24.980Z,9.88
2018-04-22T10:13:25.770Z,11.19
2018-04-22T10:19:26.524Z,11.95
2018-04-22T10:23:27.489Z,11.24
2018-04-22T10:29:28.225Z,12
2018-04-22T10:33:29.012Z,12.21
2018-04-22T10:35:29.660Z,12.66
2018-04-22T10:39:30.552Z,12.91
2018-04-22T10:45:31.231Z,11.87
2018-04-22T10:49:31.980Z,12.96
2018-04-22T10:55:32.763Z,11.91
2018-04-22T10:59:33.607Z,11.21
2018-04-22T11:01:34.316Z,10.95
2018-04-22T11:05:35.132Z,9.98
2018-04-22T11:11:36.019Z,10.46
2018-04-22T11:15:36.733Z,9.41
2018-04-22T11:21:37.530Z,10.43
2018-04-22T11:27:38.347Z,9.71
2018-04-22T11:31:39.135Z,12.14
2018-04-22T11:37:39.880Z,9.85
2018-04-22T11:41:40.667Z,9.12
2018-04-22T11:43:41.672Z,9.13
2018-04-22T11:47:42.559Z,8.62
2018-04-22T11:53:43.313Z,11.74
2018-04-22T11:57:44.067Z,10.59
2018-04-22T12:03:44.962Z,12.42
2018-04-22T12:07:50.409Z,10.22
2018-04-22T12:09:51.444Z,10.36
2018-04-22T12:13:52.358Z,9.66
2018-04-22T12:19:53.178Z,11.08
2018-04-22T12:23:53.925Z,9.7
2018-04-22T12:29:54.649Z,9.18
2018-04-22T12:35:55.427Z,9.18
2018-04-22T12:39:56.513Z,9.19
2018-04-22T12:45:57.322Z,9.47
2018-04-22T12:49:58.114Z,8.56
2018-04-22T12:51:58.892Z,9.21
2018-04-22T12:55:59.733Z,9.22
2018-04-22T13:02:00.595Z,8.89
2018-04-22T13:06:01.380Z,9.25
2018-04-22T13:12:02.107Z,10.16
2018-04-22T13:16:02.869Z,9.27
2018-04-22T13:18:03.979Z,9.19
2018-04-22T13:22:04.808Z,8.28
2018-04-22T13:28:05.654Z,9.02
2018-04-22T13:32:06.467Z,9.1
2018-04-22T13:38:07.256Z,8.59
2018-04-22T13:44:08.205Z,10.25
2018-04-22T13:48:08.976Z,7.68
2018-04-22T13:54:09.825Z,8.51
2018-04-22T13:58:10.696Z,7.82
2018-04-22T14:00:11.753Z,7.86
2018-04-22T14:04:12.636Z,7.71
2018-04-22T14:10:13.584Z,8.02
2018-04-22T14:14:14.260Z,7.3
2018-04-22T14:20:15.046Z,8.12
2018-04-22T14:26:15.819Z,7.59
2018-04-22T14:30:17.090Z,6.95
2018-04-22T14:36:17.894Z,8.1
2018-04-22T14:40:18.783Z,7.01
2018-04-22T14:46:19.518Z,6.93
2018-04-22T14:52:20.400Z,6.55
2018-04-22T14:56:21.115Z,8.43
2018-04-22T15:02:21.871Z,6.5
2018-04-22T15:06:23.009Z,6.54
2018-04-22T15:08:23.727Z,7.21
2018-04-22T15:12:24.387Z,8.71
2018-04-22T15:18:25.115Z,6.45
2018-04-22T15:22:25.830Z,6.47
2018-04-22T15:28:26.645Z,6.88
2018-04-22T15:34:27.404Z,7.4
2018-04-22T15:38:28.186Z,6.46
2018-04-22T15:44:28.905Z,8.63
2018-04-22T15:48:29.700Z,7.37
2018-04-22T15:50:30.428Z,7.28
2018-04-22T15:54:31.250Z,7.01
2018-04-22T16:00:31.995Z,7.4
2018-04-22T16:04:32.987Z,7.2
2018-04-22T16:10:34.541Z,5.77
2018-04-22T16:14:35.425Z,6.77
2018-04-22T16:16:36.135Z,6.92
2018-04-22T16:20:37.032Z,5.67
2018-04-22T16:26:37.733Z,6.62
2018-04-22T16:30:38.556Z,6.14
2018-04-22T16:36:39.347Z,7.68
2018-04-22T16:42:40.227Z,8.17
2018-04-22T16:46:40.928Z,7.19
2018-04-22T16:52:41.642Z,7.03
2018-04-22T16:56:42.439Z,6.78
2018-04-22T16:58:43.197Z,6.57
2018-04-22T17:02:43.919Z,6.23
2018-04-22T17:08:44.683Z,6.44
2018-04-22T17:12:45.460Z,6.43
2018-04-22T17:18:46.291Z,6.98
2018-04-22T17:24:47.158Z,5.8
2018-04-22T17:28:47.850Z,5.56
2018-04-22T17:34:48.583Z,6.18
2018-04-22T17:38:49.492Z,7.66
2018-04-22T17:44:50.187Z,7.13
2018-04-22T17:50:50.944Z,7.23
2018-04-22T17:54:51.699Z,7.9
2018-04-22T18:00:52.485Z,7.2
2018-04-22T18:04:53.224Z,6.81
2018-04-22T18:06:53.920Z,7.6
2018-04-22T18:10:54.677Z,8.86
2018-04-22T18:16:55.457Z,6.4
2018-04-22T18:20:56.528Z,8.08
2018-04-22T18:26:57.430Z,7.8
2018-04-22T18:32:58.354Z,9.86
2018-04-22T18:36:59.059Z,9.67
2018-04-22T18:42:59.855Z,8.68
2018-04-22T18:47:00.692Z,8.5
2018-04-22T18:49:01.343Z,9.19
2018-04-22T18:53:02.273Z,9.3
2018-04-22T18:59:03.013Z,10.8
2018-04-22T19:03:03.805Z,8.54
2018-04-22T19:09:04.652Z,8.33
2018-04-22T19:13:05.595Z,8.37
2018-04-22T19:19:11.882Z,9.71
2018-04-22T19:19:12.045Z,10.53
2018-04-22T19:25:12.916Z,12.48
2018-04-22T19:29:14.555Z,11.27
2018-04-22T19:35:15.675Z,11.46
2018-04-22T19:41:16.503Z,8.21
2018-04-22T19:45:17.793Z,9.29
2018-04-22T19:51:19.397Z,8.76
2018-04-22T19:55:20.357Z,9.68
2018-04-22T19:57:22.057Z,8.62
2018-04-22T20:01:22.775Z,8.62
2018-04-22T20:07:23.592Z,9.42
2018-04-22T20:11:24.315Z,11.33
2018-04-22T20:17:25.334Z,8.3
2018-04-22T20:21:26.036Z,8.55
2018-04-22T20:23:26.761Z,8.75
2018-04-22T20:27:27.577Z,9.13
2018-04-22T20:33:28.298Z,12.58
2018-04-22T20:37:29.069Z,11.57
2018-04-22T20:43:29.880Z,7.65
2018-04-22T20:49:30.776Z,8.65
2018-04-22T20:53:31.675Z,8.14
2018-04-22T20:59:32.555Z,10.03
2018-04-22T21:03:33.352Z,9.23
2018-04-22T21:05:34.014Z,7.83
2018-04-22T21:09:34.963Z,7.91
2018-04-22T21:15:35.768Z,19.61
2018-04-22T21:19:36.542Z,19.48
2018-04-22T21:25:37.308Z,9.24
2018-04-22T21:29:38.217Z,9.57
2018-04-22T21:31:38.961Z,11.65
2018-04-22T21:35:39.741Z,10.51
2018-04-22T21:41:40.461Z,9.08
2018-04-22T21:45:41.263Z,8.92
2018-04-22T21:57:44.522Z,11.31
2018-04-22T21:57:44.658Z,11.88
2018-04-22T22:01:45.438Z,10.57
2018-04-22T22:07:46.203Z,12.17
2018-04-22T22:11:47.077Z,11.42
2018-04-22T22:13:47.792Z,11.86
2018-04-22T22:17:48.576Z,12.36
2018-04-22T22:23:49.314Z,11.4
2018-04-22T22:27:50.125Z,11.24
2018-04-22T22:33:50.800Z,11.44
2018-04-22T22:37:51.609Z,10.53
2018-04-22T22:39:52.347Z,11.08
2018-04-22T22:43:53.105Z,10.86
2018-04-22T22:49:53.823Z,10.43
2018-04-22T22:53:54.847Z,10.86
2018-04-22T22:59:55.566Z,10.89
2018-04-22T23:05:56.358Z,9.95
2018-04-22T23:09:57.220Z,10.46
2018-04-22T23:15:57.967Z,10.42
2018-04-22T23:19:58.774Z,9.17
2018-04-22T23:21:59.552Z,9.69
2018-04-22T23:26:00.249Z,9.76
2018-04-22T23:32:00.943Z,10.36
2018-04-22T23:36:01.717Z,9.85
2018-04-22T23:42:02.500Z,9.46
2018-04-22T23:48:03.295Z,9.86
2018-04-22T23:52:04.098Z,9.85
2018-04-22T23:58:04.821Z,11.87
